McEwen, Tennessee
Current Conditions -  °F | °C
As of 4:52 PM on Wednesday 22 Oct 2014 (Local Time) from KCKV Reporting Station
Clear Clear  
Wind Chill: 62°   Ceiling: Unl
Heat Index: 62°   Visibility: 10mi
Dew Point: 40°   Wind: 6mph
Humidity: 44%   Direction: 40°NE
Pressure: 30.21"   Gusts: NA
Location:  36.11°N, 87.63°W
Report Text: KCKV 222152Z AUTO 04005KT 10SM CLR 17/04 A3021 RMK AO2 SLP228 T01670044
Loading
Personal Weather Stations






























Interactive Weather Map
Tropical Storm Tracking
New forecast layout! Learn more

10-Day Weather Forecast

Advertisements
Track Severe Weather on mobile